sensor_id;sensor_type;location;lat;lon;timestamp;P1;durP1;ratioP1;P2;durP2;ratioP2
60432;SDS011;46286;48.098;11.590;2023-03-01T00:00:37;25.33;;;12.23;;
60432;SDS011;46286;48.098;11.590;2023-03-01T00:03:20;25.85;;;12.82;;
60432;SDS011;46286;48.098;11.590;2023-03-01T00:05:46;26.83;;;12.20;;
60432;SDS011;46286;48.098;11.590;2023-03-01T00:08:12;22.55;;;12.00;;
60432;SDS011;46286;48.098;11.590;2023-03-01T00:10:37;27.25;;;13.65;;
60432;SDS011;46286;48.098;11.590;2023-03-01T00:13:03;26.42;;;12.60;;
60432;SDS011;46286;48.098;11.590;2023-03-01T00:15:31;24.85;;;12.18;;
60432;SDS011;46286;48.098;11.590;2023-03-01T00:17:57;27.23;;;13.20;;
60432;SDS011;46286;48.098;11.590;2023-03-01T00:20:23;26.98;;;13.65;;
60432;SDS011;46286;48.098;11.590;2023-03-01T00:22:48;24.95;;;12.55;;
60432;SDS011;46286;48.098;11.590;2023-03-01T00:25:14;31.60;;;13.30;;
60432;SDS011;46286;48.098;11.590;2023-03-01T00:27:39;28.90;;;13.02;;
60432;SDS011;46286;48.098;11.590;2023-03-01T00:30:05;30.27;;;12.77;;
60432;SDS011;46286;48.098;11.590;2023-03-01T00:32:31;25.70;;;12.07;;
60432;SDS011;46286;48.098;11.590;2023-03-01T00:34:57;30.90;;;13.32;;
60432;SDS011;46286;48.098;11.590;2023-03-01T00:37:23;20.55;;;11.40;;
60432;SDS011;46286;48.098;11.590;2023-03-01T00:39:49;31.20;;;13.18;;
60432;SDS011;46286;48.098;11.590;2023-03-01T00:42:15;28.63;;;13.18;;
60432;SDS011;46286;48.098;11.590;2023-03-01T00:44:41;25.83;;;12.45;;
60432;SDS011;46286;48.098;11.590;2023-03-01T00:47:07;25.35;;;12.48;;
60432;SDS011;46286;48.098;11.590;2023-03-01T00:49:33;25.48;;;12.38;;
60432;SDS011;46286;48.098;11.590;2023-03-01T00:51:59;25.00;;;12.48;;
60432;SDS011;46286;48.098;11.590;2023-03-01T00:54:25;24.77;;;12.93;;
60432;SDS011;46286;48.098;11.590;2023-03-01T00:56:50;26.27;;;12.98;;
60432;SDS011;46286;48.098;11.590;2023-03-01T00:59:16;25.88;;;13.13;;
60432;SDS011;46286;48.098;11.590;2023-03-01T01:01:41;24.92;;;12.50;;
60432;SDS011;46286;48.098;11.590;2023-03-01T01:04:08;25.75;;;13.20;;
60432;SDS011;46286;48.098;11.590;2023-03-01T01:06:41;26.15;;;12.18;;
60432;SDS011;46286;48.098;11.590;2023-03-01T01:09:09;26.95;;;13.20;;
60432;SDS011;46286;48.098;11.590;2023-03-01T01:11:42;26.17;;;13.38;;
60432;SDS011;46286;48.098;11.590;2023-03-01T01:14:12;24.45;;;12.20;;
60432;SDS011;46286;48.098;11.590;2023-03-01T01:16:38;23.98;;;11.90;;
60432;SDS011;46286;48.098;11.590;2023-03-01T01:19:04;25.25;;;12.45;;
60432;SDS011;46286;48.098;11.590;2023-03-01T01:21:30;27.25;;;12.85;;
60432;SDS011;46286;48.098;11.590;2023-03-01T01:23:56;25.90;;;12.60;;
60432;SDS011;46286;48.098;11.590;2023-03-01T01:26:23;25.52;;;12.93;;
60432;SDS011;46286;48.098;11.590;2023-03-01T01:28:51;28.83;;;13.57;;
60432;SDS011;46286;48.098;11.590;2023-03-01T01:31:18;24.60;;;13.05;;
60432;SDS011;46286;48.098;11.590;2023-03-01T01:33:44;24.45;;;12.60;;
60432;SDS011;46286;48.098;11.590;2023-03-01T01:36:10;24.13;;;12.50;;
60432;SDS011;46286;48.098;11.590;2023-03-01T01:38:37;27.08;;;13.35;;
60432;SDS011;46286;48.098;11.590;2023-03-01T01:41:03;22.42;;;12.20;;
60432;SDS011;46286;48.098;11.590;2023-03-01T01:43:31;26.67;;;13.40;;
60432;SDS011;46286;48.098;11.590;2023-03-01T01:46:01;28.65;;;13.55;;
60432;SDS011;46286;48.098;11.590;2023-03-01T01:48:52;26.63;;;12.85;;
60432;SDS011;46286;48.098;11.590;2023-03-01T01:51:23;28.88;;;12.25;;
60432;SDS011;46286;48.098;11.590;2023-03-01T01:53:57;27.30;;;13.15;;
60432;SDS011;46286;48.098;11.590;2023-03-01T01:56:25;27.80;;;12.50;;
60432;SDS011;46286;48.098;11.590;2023-03-01T01:58:53;27.95;;;13.02;;
60432;SDS011;46286;48.098;11.590;2023-03-01T02:01:20;21.73;;;11.63;;
60432;SDS011;46286;48.098;11.590;2023-03-01T02:03:46;25.38;;;13.45;;
60432;SDS011;46286;48.098;11.590;2023-03-01T02:06:26;26.73;;;12.35;;
60432;SDS011;46286;48.098;11.590;2023-03-01T02:09:00;25.30;;;12.65;;
60432;SDS011;46286;48.098;11.590;2023-03-01T02:11:30;25.73;;;13.00;;
60432;SDS011;46286;48.098;11.590;2023-03-01T02:13:57;28.02;;;12.93;;
60432;SDS011;46286;48.098;11.590;2023-03-01T02:16:22;25.02;;;12.43;;
60432;SDS011;46286;48.098;11.590;2023-03-01T02:18:48;25.63;;;13.38;;
60432;SDS011;46286;48.098;11.590;2023-03-01T02:24:01;27.10;;;13.20;;
60432;SDS011;46286;48.098;11.590;2023-03-01T02:26:40;24.95;;;12.27;;
60432;SDS011;46286;48.098;11.590;2023-03-01T02:29:10;28.15;;;13.15;;
60432;SDS011;46286;48.098;11.590;2023-03-01T02:31:36;27.00;;;12.70;;
60432;SDS011;46286;48.098;11.590;2023-03-01T02:34:09;28.80;;;12.65;;
60432;SDS011;46286;48.098;11.590;2023-03-01T02:36:53;26.30;;;13.90;;
60432;SDS011;46286;48.098;11.590;2023-03-01T02:39:26;23.50;;;13.30;;
60432;SDS011;46286;48.098;11.590;2023-03-01T02:41:56;25.75;;;13.02;;
60432;SDS011;46286;48.098;11.590;2023-03-01T02:44:22;25.67;;;12.63;;
60432;SDS011;46286;48.098;11.590;2023-03-01T02:46:50;27.05;;;12.13;;
60432;SDS011;46286;48.098;11.590;2023-03-01T02:49:24;22.10;;;10.82;;
60432;SDS011;46286;48.098;11.590;2023-03-01T02:57:26;24.65;;;12.63;;
60432;SDS011;46286;48.098;11.590;2023-03-01T02:59:54;28.23;;;13.30;;
60432;SDS011;46286;48.098;11.590;2023-03-01T03:02:22;26.58;;;13.43;;
60432;SDS011;46286;48.098;11.590;2023-03-01T03:05:43;23.40;;;12.05;;
60432;SDS011;46286;48.098;11.590;2023-03-01T03:07:52;28.95;;;13.25;;
60432;SDS011;46286;48.098;11.590;2023-03-01T03:10:26;27.90;;;12.48;;
60432;SDS011;46286;48.098;11.590;2023-03-01T03:13:03;24.25;;;12.93;;
60432;SDS011;46286;48.098;11.590;2023-03-01T03:15:32;33.20;;;13.05;;
60432;SDS011;46286;48.098;11.590;2023-03-01T03:18:01;25.27;;;13.60;;
60432;SDS011;46286;48.098;11.590;2023-03-01T03:20:28;26.38;;;12.65;;
60432;SDS011;46286;48.098;11.590;2023-03-01T03:22:55;24.73;;;12.57;;
60432;SDS011;46286;48.098;11.590;2023-03-01T03:25:24;24.40;;;13.18;;
60432;SDS011;46286;48.098;11.590;2023-03-01T03:27:51;27.70;;;13.60;;
60432;SDS011;46286;48.098;11.590;2023-03-01T03:30:28;31.13;;;13.30;;
60432;SDS011;46286;48.098;11.590;2023-03-01T03:32:55;26.33;;;13.07;;
60432;SDS011;46286;48.098;11.590;2023-03-01T03:35:31;23.50;;;12.55;;
60432;SDS011;46286;48.098;11.590;2023-03-01T03:37:59;27.23;;;13.15;;
60432;SDS011;46286;48.098;11.590;2023-03-01T03:40:27;31.30;;;13.60;;
60432;SDS011;46286;48.098;11.590;2023-03-01T03:42:56;26.92;;;12.25;;
60432;SDS011;46286;48.098;11.590;2023-03-01T03:45:21;27.67;;;13.80;;
60432;SDS011;46286;48.098;11.590;2023-03-01T03:47:47;26.77;;;12.73;;
60432;SDS011;46286;48.098;11.590;2023-03-01T03:50:14;24.30;;;12.32;;
60432;SDS011;46286;48.098;11.590;2023-03-01T03:52:41;29.00;;;13.07;;
60432;SDS011;46286;48.098;11.590;2023-03-01T03:55:07;24.77;;;13.07;;
60432;SDS011;46286;48.098;11.590;2023-03-01T03:57:34;26.73;;;13.35;;
60432;SDS011;46286;48.098;11.590;2023-03-01T04:00:01;25.40;;;12.93;;
60432;SDS011;46286;48.098;11.590;2023-03-01T04:02:29;29.73;;;12.73;;
60432;SDS011;46286;48.098;11.590;2023-03-01T04:04:55;25.02;;;13.05;;
60432;SDS011;46286;48.098;11.590;2023-03-01T04:07:20;29.38;;;13.10;;
60432;SDS011;46286;48.098;11.590;2023-03-01T04:09:46;27.55;;;12.43;;
60432;SDS011;46286;48.098;11.590;2023-03-01T04:12:11;25.38;;;12.38;;
60432;SDS011;46286;48.098;11.590;2023-03-01T04:14:37;28.67;;;13.23;;
60432;SDS011;46286;48.098;11.590;2023-03-01T04:17:02;26.55;;;13.63;;
60432;SDS011;46286;48.098;11.590;2023-03-01T04:19:31;27.45;;;13.20;;
60432;SDS011;46286;48.098;11.590;2023-03-01T04:22:04;27.02;;;13.18;;
60432;SDS011;46286;48.098;11.590;2023-03-01T04:24:35;23.23;;;12.67;;
60432;SDS011;46286;48.098;11.590;2023-03-01T04:27:00;25.50;;;13.18;;
60432;SDS011;46286;48.098;11.590;2023-03-01T04:29:26;27.92;;;13.55;;
60432;SDS011;46286;48.098;11.590;2023-03-01T04:31:52;25.45;;;12.48;;
60432;SDS011;46286;48.098;11.590;2023-03-01T04:34:18;25.65;;;13.52;;
60432;SDS011;46286;48.098;11.590;2023-03-01T04:36:44;26.70;;;14.02;;
60432;SDS011;46286;48.098;11.590;2023-03-01T04:39:09;31.58;;;12.93;;
60432;SDS011;46286;48.098;11.590;2023-03-01T04:41:38;27.70;;;12.73;;
60432;SDS011;46286;48.098;11.590;2023-03-01T04:44:04;29.02;;;14.30;;
60432;SDS011;46286;48.098;11.590;2023-03-01T04:46:30;27.80;;;12.00;;
60432;SDS011;46286;48.098;11.590;2023-03-01T04:48:56;25.30;;;13.30;;
60432;SDS011;46286;48.098;11.590;2023-03-01T04:51:21;28.38;;;14.25;;
60432;SDS011;46286;48.098;11.590;2023-03-01T04:53:47;28.92;;;14.15;;
60432;SDS011;46286;48.098;11.590;2023-03-01T04:56:13;25.52;;;12.23;;
60432;SDS011;46286;48.098;11.590;2023-03-01T04:58:39;26.88;;;13.70;;
60432;SDS011;46286;48.098;11.590;2023-03-01T05:01:15;29.50;;;13.75;;
60432;SDS011;46286;48.098;11.590;2023-03-01T05:03:46;24.15;;;12.40;;
60432;SDS011;46286;48.098;11.590;2023-03-01T05:06:14;27.10;;;13.38;;
60432;SDS011;46286;48.098;11.590;2023-03-01T05:08:41;30.35;;;14.27;;
60432;SDS011;46286;48.098;11.590;2023-03-01T05:11:08;26.73;;;13.98;;
60432;SDS011;46286;48.098;11.590;2023-03-01T05:13:34;29.02;;;13.82;;
60432;SDS011;46286;48.098;11.590;2023-03-01T05:16:04;27.52;;;13.55;;
60432;SDS011;46286;48.098;11.590;2023-03-01T05:18:32;27.77;;;12.45;;
60432;SDS011;46286;48.098;11.590;2023-03-01T05:21:08;26.08;;;13.38;;
60432;SDS011;46286;48.098;11.590;2023-03-01T05:23:36;23.77;;;12.23;;
60432;SDS011;46286;48.098;11.590;2023-03-01T05:26:02;25.00;;;13.25;;
60432;SDS011;46286;48.098;11.590;2023-03-01T05:28:31;28.08;;;13.75;;
60432;SDS011;46286;48.098;11.590;2023-03-01T05:30:57;29.73;;;13.57;;
60432;SDS011;46286;48.098;11.590;2023-03-01T05:33:23;33.20;;;13.82;;
60432;SDS011;46286;48.098;11.590;2023-03-01T05:35:49;28.75;;;13.07;;
60432;SDS011;46286;48.098;11.590;2023-03-01T05:38:16;26.02;;;13.13;;
60432;SDS011;46286;48.098;11.590;2023-03-01T05:40:44;30.33;;;14.48;;
60432;SDS011;46286;48.098;11.590;2023-03-01T05:43:11;26.27;;;13.82;;
60432;SDS011;46286;48.098;11.590;2023-03-01T05:45:37;31.65;;;13.85;;
60432;SDS011;46286;48.098;11.590;2023-03-01T05:48:04;30.08;;;14.55;;
60432;SDS011;46286;48.098;11.590;2023-03-01T05:50:37;29.25;;;14.00;;
60432;SDS011;46286;48.098;11.590;2023-03-01T05:55:33;26.58;;;13.88;;
60432;SDS011;46286;48.098;11.590;2023-03-01T05:58:00;29.80;;;13.93;;
60432;SDS011;46286;48.098;11.590;2023-03-01T06:00:27;27.05;;;12.80;;
60432;SDS011;46286;48.098;11.590;2023-03-01T06:02:55;23.65;;;13.13;;
60432;SDS011;46286;48.098;11.590;2023-03-01T06:05:22;27.88;;;13.38;;
60432;SDS011;46286;48.098;11.590;2023-03-01T06:07:48;31.00;;;13.43;;
60432;SDS011;46286;48.098;11.590;2023-03-01T06:10:15;27.45;;;14.23;;
60432;SDS011;46286;48.098;11.590;2023-03-01T06:12:41;28.52;;;13.45;;
60432;SDS011;46286;48.098;11.590;2023-03-01T06:15:09;27.25;;;12.55;;
60432;SDS011;46286;48.098;11.590;2023-03-01T06:17:36;32.20;;;14.30;;
60432;SDS011;46286;48.098;11.590;2023-03-01T06:20:07;27.60;;;12.73;;
60432;SDS011;46286;48.098;11.590;2023-03-01T06:22:37;28.15;;;14.05;;
60432;SDS011;46286;48.098;11.590;2023-03-01T06:25:03;32.53;;;14.35;;
60432;SDS011;46286;48.098;11.590;2023-03-01T06:27:29;26.42;;;13.30;;
60432;SDS011;46286;48.098;11.590;2023-03-01T06:29:55;26.33;;;13.80;;
60432;SDS011;46286;48.098;11.590;2023-03-01T06:32:20;27.27;;;13.25;;
60432;SDS011;46286;48.098;11.590;2023-03-01T06:34:46;28.42;;;13.38;;
60432;SDS011;46286;48.098;11.590;2023-03-01T06:37:11;26.05;;;11.57;;
60432;SDS011;46286;48.098;11.590;2023-03-01T06:39:37;28.13;;;13.93;;
60432;SDS011;46286;48.098;11.590;2023-03-01T06:42:03;29.42;;;13.02;;
60432;SDS011;46286;48.098;11.590;2023-03-01T06:44:28;34.70;;;13.85;;
60432;SDS011;46286;48.098;11.590;2023-03-01T06:46:54;28.88;;;13.85;;
60432;SDS011;46286;48.098;11.590;2023-03-01T06:49:19;31.55;;;13.73;;
60432;SDS011;46286;48.098;11.590;2023-03-01T06:51:46;31.17;;;13.73;;
60432;SDS011;46286;48.098;11.590;2023-03-01T06:54:11;34.03;;;14.00;;
60432;SDS011;46286;48.098;11.590;2023-03-01T06:56:38;28.67;;;13.10;;
60432;SDS011;46286;48.098;11.590;2023-03-01T06:59:04;29.60;;;14.30;;
60432;SDS011;46286;48.098;11.590;2023-03-01T07:01:30;32.42;;;14.23;;
60432;SDS011;46286;48.098;11.590;2023-03-01T07:03:55;29.35;;;13.68;;
60432;SDS011;46286;48.098;11.590;2023-03-01T07:06:21;30.58;;;13.93;;
60432;SDS011;46286;48.098;11.590;2023-03-01T07:08:47;40.00;;;14.88;;
60432;SDS011;46286;48.098;11.590;2023-03-01T07:11:13;28.88;;;12.88;;
60432;SDS011;46286;48.098;11.590;2023-03-01T07:13:39;32.25;;;14.25;;
60432;SDS011;46286;48.098;11.590;2023-03-01T07:16:05;34.35;;;12.98;;
60432;SDS011;46286;48.098;11.590;2023-03-01T07:18:31;28.63;;;13.20;;
60432;SDS011;46286;48.098;11.590;2023-03-01T07:20:56;69.22;;;16.58;;
60432;SDS011;46286;48.098;11.590;2023-03-01T07:23:22;52.03;;;14.23;;
60432;SDS011;46286;48.098;11.590;2023-03-01T07:25:51;29.85;;;13.52;;
60432;SDS011;46286;48.098;11.590;2023-03-01T07:28:18;29.98;;;13.75;;
60432;SDS011;46286;48.098;11.590;2023-03-01T07:30:44;28.52;;;12.60;;
60432;SDS011;46286;48.098;11.590;2023-03-01T07:33:09;33.72;;;14.23;;
60432;SDS011;46286;48.098;11.590;2023-03-01T07:35:35;30.88;;;14.13;;
60432;SDS011;46286;48.098;11.590;2023-03-01T07:38:00;30.88;;;13.35;;
60432;SDS011;46286;48.098;11.590;2023-03-01T07:40:26;35.85;;;15.05;;
60432;SDS011;46286;48.098;11.590;2023-03-01T07:42:55;37.55;;;14.10;;
60432;SDS011;46286;48.098;11.590;2023-03-01T07:45:24;27.90;;;13.43;;
60432;SDS011;46286;48.098;11.590;2023-03-01T07:47:50;31.75;;;13.75;;
60432;SDS011;46286;48.098;11.590;2023-03-01T07:50:17;30.50;;;14.15;;
60432;SDS011;46286;48.098;11.590;2023-03-01T07:52:46;26.83;;;13.20;;
60432;SDS011;46286;48.098;11.590;2023-03-01T07:55:13;30.08;;;14.65;;
60432;SDS011;46286;48.098;11.590;2023-03-01T07:57:39;33.38;;;14.75;;
60432;SDS011;46286;48.098;11.590;2023-03-01T08:00:05;27.77;;;14.65;;
60432;SDS011;46286;48.098;11.590;2023-03-01T08:02:31;29.45;;;14.35;;
60432;SDS011;46286;48.098;11.590;2023-03-01T08:04:57;36.53;;;15.52;;
60432;SDS011;46286;48.098;11.590;2023-03-01T08:07:22;30.35;;;13.35;;
60432;SDS011;46286;48.098;11.590;2023-03-01T08:09:48;30.05;;;14.55;;
60432;SDS011;46286;48.098;11.590;2023-03-01T08:12:13;30.08;;;13.95;;
60432;SDS011;46286;48.098;11.590;2023-03-01T08:14:41;28.48;;;13.57;;
60432;SDS011;46286;48.098;11.590;2023-03-01T08:17:07;29.23;;;14.07;;
60432;SDS011;46286;48.098;11.590;2023-03-01T08:19:32;29.58;;;13.15;;
60432;SDS011;46286;48.098;11.590;2023-03-01T08:22:00;29.77;;;14.05;;
60432;SDS011;46286;48.098;11.590;2023-03-01T08:24:27;34.03;;;14.52;;
60432;SDS011;46286;48.098;11.590;2023-03-01T08:26:53;29.65;;;13.82;;
60432;SDS011;46286;48.098;11.590;2023-03-01T08:29:19;30.42;;;13.88;;
60432;SDS011;46286;48.098;11.590;2023-03-01T08:31:45;34.47;;;14.68;;
60432;SDS011;46286;48.098;11.590;2023-03-01T08:34:12;27.92;;;12.75;;
60432;SDS011;46286;48.098;11.590;2023-03-01T08:36:40;28.85;;;13.65;;
60432;SDS011;46286;48.098;11.590;2023-03-01T08:39:07;30.17;;;13.52;;
60432;SDS011;46286;48.098;11.590;2023-03-01T08:41:34;33.03;;;14.05;;
60432;SDS011;46286;48.098;11.590;2023-03-01T08:43:59;29.77;;;13.85;;
60432;SDS011;46286;48.098;11.590;2023-03-01T08:46:26;30.58;;;15.07;;
60432;SDS011;46286;48.098;11.590;2023-03-01T08:48:52;32.33;;;14.57;;
60432;SDS011;46286;48.098;11.590;2023-03-01T08:51:18;27.92;;;13.88;;
60432;SDS011;46286;48.098;11.590;2023-03-01T08:53:44;28.15;;;13.38;;
60432;SDS011;46286;48.098;11.590;2023-03-01T08:56:10;32.20;;;14.52;;
60432;SDS011;46286;48.098;11.590;2023-03-01T08:58:37;32.08;;;13.90;;
60432;SDS011;46286;48.098;11.590;2023-03-01T09:01:09;32.30;;;15.07;;
60432;SDS011;46286;48.098;11.590;2023-03-01T09:03:36;35.45;;;14.80;;
60432;SDS011;46286;48.098;11.590;2023-03-01T09:06:02;32.25;;;14.55;;
60432;SDS011;46286;48.098;11.590;2023-03-01T09:08:29;28.17;;;14.73;;
60432;SDS011;46286;48.098;11.590;2023-03-01T09:10:56;37.00;;;15.45;;
60432;SDS011;46286;48.098;11.590;2023-03-01T09:13:22;29.48;;;14.38;;
60432;SDS011;46286;48.098;11.590;2023-03-01T09:15:52;29.42;;;14.15;;
60432;SDS011;46286;48.098;11.590;2023-03-01T09:18:18;28.58;;;14.85;;
60432;SDS011;46286;48.098;11.590;2023-03-01T09:20:43;28.02;;;14.05;;
60432;SDS011;46286;48.098;11.590;2023-03-01T09:23:09;32.65;;;15.45;;
60432;SDS011;46286;48.098;11.590;2023-03-01T09:25:34;30.05;;;14.05;;
60432;SDS011;46286;48.098;11.590;2023-03-01T09:28:00;34.53;;;15.20;;
60432;SDS011;46286;48.098;11.590;2023-03-01T09:30:26;31.13;;;14.23;;
60432;SDS011;46286;48.098;11.590;2023-03-01T09:32:51;33.90;;;14.07;;
60432;SDS011;46286;48.098;11.590;2023-03-01T09:35:17;29.42;;;13.68;;
60432;SDS011;46286;48.098;11.590;2023-03-01T09:37:45;34.00;;;15.23;;
60432;SDS011;46286;48.098;11.590;2023-03-01T09:40:15;35.60;;;14.65;;
60432;SDS011;46286;48.098;11.590;2023-03-01T09:42:46;28.67;;;13.30;;
60432;SDS011;46286;48.098;11.590;2023-03-01T09:45:24;34.35;;;15.02;;
60432;SDS011;46286;48.098;11.590;2023-03-01T09:47:54;37.95;;;15.00;;
60432;SDS011;46286;48.098;11.590;2023-03-01T09:50:21;28.75;;;14.25;;
60432;SDS011;46286;48.098;11.590;2023-03-01T09:55:33;29.73;;;14.40;;
60432;SDS011;46286;48.098;11.590;2023-03-01T10:04:38;28.88;;;13.65;;
60432;SDS011;46286;48.098;11.590;2023-03-01T10:09:49;28.88;;;14.00;;
60432;SDS011;46286;48.098;11.590;2023-03-01T10:12:15;29.88;;;12.93;;
60432;SDS011;46286;48.098;11.590;2023-03-01T10:15:01;28.83;;;14.23;;
60432;SDS011;46286;48.098;11.590;2023-03-01T10:17:36;29.15;;;13.88;;
60432;SDS011;46286;48.098;11.590;2023-03-01T10:22:49;30.45;;;13.88;;
60432;SDS011;46286;48.098;11.590;2023-03-01T10:25:21;29.80;;;14.15;;
60432;SDS011;46286;48.098;11.590;2023-03-01T10:31:07;31.98;;;15.13;;
60432;SDS011;46286;48.098;11.590;2023-03-01T10:33:38;30.92;;;15.02;;
60432;SDS011;46286;48.098;11.590;2023-03-01T10:36:07;32.83;;;14.57;;
60432;SDS011;46286;48.098;11.590;2023-03-01T10:38:53;31.48;;;15.50;;
60432;SDS011;46286;48.098;11.590;2023-03-01T10:41:20;31.63;;;14.52;;
60432;SDS011;46286;48.098;11.590;2023-03-01T10:43:51;29.50;;;14.68;;
60432;SDS011;46286;48.098;11.590;2023-03-01T10:46:35;33.85;;;14.20;;
60432;SDS011;46286;48.098;11.590;2023-03-01T10:51:30;30.33;;;14.93;;
60432;SDS011;46286;48.098;11.590;2023-03-01T10:53:56;28.67;;;13.55;;
60432;SDS011;46286;48.098;11.590;2023-03-01T10:56:21;32.88;;;14.43;;
60432;SDS011;46286;48.098;11.590;2023-03-01T10:59:03;28.08;;;12.35;;
60432;SDS011;46286;48.098;11.590;2023-03-01T11:01:34;20.95;;;10.88;;
60432;SDS011;46286;48.098;11.590;2023-03-01T11:06:32;29.00;;;12.93;;
60432;SDS011;46286;48.098;11.590;2023-03-01T11:09:12;27.48;;;12.88;;
60432;SDS011;46286;48.098;11.590;2023-03-01T11:11:45;25.83;;;12.93;;
60432;SDS011;46286;48.098;11.590;2023-03-01T11:16:46;27.30;;;13.00;;
60432;SDS011;46286;48.098;11.590;2023-03-01T11:19:15;26.98;;;13.35;;
60432;SDS011;46286;48.098;11.590;2023-03-01T11:21:46;31.13;;;14.88;;
60432;SDS011;46286;48.098;11.590;2023-03-01T11:24:18;26.55;;;15.05;;
60432;SDS011;46286;48.098;11.590;2023-03-01T11:26:47;26.98;;;13.73;;
60432;SDS011;46286;48.098;11.590;2023-03-01T11:31:58;25.08;;;13.50;;
60432;SDS011;46286;48.098;11.590;2023-03-01T11:34:49;28.02;;;15.13;;
60432;SDS011;46286;48.098;11.590;2023-03-01T11:37:26;29.23;;;16.02;;
60432;SDS011;46286;48.098;11.590;2023-03-01T11:40:03;20.27;;;10.73;;
60432;SDS011;46286;48.098;11.590;2023-03-01T11:42:50;28.35;;;15.50;;
60432;SDS011;46286;48.098;11.590;2023-03-01T11:45:26;27.00;;;14.07;;
60432;SDS011;46286;48.098;11.590;2023-03-01T11:50:41;28.33;;;14.90;;
60432;SDS011;46286;48.098;11.590;2023-03-01T11:56:19;30.42;;;15.05;;
60432;SDS011;46286;48.098;11.590;2023-03-01T12:01:47;27.13;;;14.30;;
60432;SDS011;46286;48.098;11.590;2023-03-01T12:07:34;26.83;;;14.77;;
60432;SDS011;46286;48.098;11.590;2023-03-01T12:13:05;29.08;;;16.33;;
60432;SDS011;46286;48.098;11.590;2023-03-01T12:21:43;30.83;;;16.25;;
60432;SDS011;46286;48.098;11.590;2023-03-01T12:24:25;26.77;;;14.95;;
60432;SDS011;46286;48.098;11.590;2023-03-01T12:29:48;28.00;;;15.38;;
60432;SDS011;46286;48.098;11.590;2023-03-01T12:32:43;29.58;;;16.60;;
60432;SDS011;46286;48.098;11.590;2023-03-01T12:37:54;32.63;;;16.98;;
60432;SDS011;46286;48.098;11.590;2023-03-01T12:40:51;29.02;;;15.82;;
60432;SDS011;46286;48.098;11.590;2023-03-01T12:48:48;28.33;;;15.13;;
60432;SDS011;46286;48.098;11.590;2023-03-01T12:51:26;28.88;;;16.30;;
60432;SDS011;46286;48.098;11.590;2023-03-01T12:53:55;34.33;;;16.88;;
60432;SDS011;46286;48.098;11.590;2023-03-01T12:56:25;28.40;;;16.48;;
60432;SDS011;46286;48.098;11.590;2023-03-01T13:10:06;28.58;;;15.85;;
60432;SDS011;46286;48.098;11.590;2023-03-01T13:12:46;24.67;;;15.68;;
60432;SDS011;46286;48.098;11.590;2023-03-01T13:17:48;25.65;;;15.65;;
60432;SDS011;46286;48.098;11.590;2023-03-01T13:20:24;28.65;;;16.92;;
60432;SDS011;46286;48.098;11.590;2023-03-01T13:31:10;33.67;;;17.00;;
60432;SDS011;46286;48.098;11.590;2023-03-01T13:33:43;28.02;;;16.63;;
60432;SDS011;46286;48.098;11.590;2023-03-01T13:39:03;28.98;;;17.13;;
60432;SDS011;46286;48.098;11.590;2023-03-01T13:46:49;29.83;;;17.65;;
60432;SDS011;46286;48.098;11.590;2023-03-01T13:49:18;28.77;;;16.58;;
60432;SDS011;46286;48.098;11.590;2023-03-01T13:51:47;29.73;;;18.05;;
60432;SDS011;46286;48.098;11.590;2023-03-01T13:54:14;34.63;;;18.55;;
60432;SDS011;46286;48.098;11.590;2023-03-01T13:56:45;29.73;;;18.00;;
60432;SDS011;46286;48.098;11.590;2023-03-01T13:59:19;30.13;;;18.13;;
60432;SDS011;46286;48.098;11.590;2023-03-01T14:01:56;30.42;;;17.20;;
60432;SDS011;46286;48.098;11.590;2023-03-01T14:04:27;33.05;;;17.95;;
60432;SDS011;46286;48.098;11.590;2023-03-01T14:10:02;35.47;;;16.92;;
60432;SDS011;46286;48.098;11.590;2023-03-01T14:17:43;33.28;;;17.05;;
60432;SDS011;46286;48.098;11.590;2023-03-01T14:22:45;35.50;;;17.40;;
60432;SDS011;46286;48.098;11.590;2023-03-01T14:28:02;35.20;;;17.50;;
60432;SDS011;46286;48.098;11.590;2023-03-01T14:30:34;35.30;;;17.30;;
60432;SDS011;46286;48.098;11.590;2023-03-01T14:33:03;33.20;;;16.42;;
60432;SDS011;46286;48.098;11.590;2023-03-01T14:35:35;31.90;;;15.90;;
60432;SDS011;46286;48.098;11.590;2023-03-01T14:38:02;33.83;;;16.98;;
60432;SDS011;46286;48.098;11.590;2023-03-01T14:40:37;32.30;;;16.08;;
60432;SDS011;46286;48.098;11.590;2023-03-01T14:43:08;32.60;;;15.93;;
60432;SDS011;46286;48.098;11.590;2023-03-01T14:45:36;35.03;;;17.35;;
60432;SDS011;46286;48.098;11.590;2023-03-01T14:48:02;33.45;;;16.63;;
60432;SDS011;46286;48.098;11.590;2023-03-01T14:50:32;33.08;;;16.23;;
60432;SDS011;46286;48.098;11.590;2023-03-01T14:53:01;34.70;;;16.13;;
60432;SDS011;46286;48.098;11.590;2023-03-01T14:55:30;32.03;;;16.02;;
60432;SDS011;46286;48.098;11.590;2023-03-01T14:57:58;29.83;;;15.38;;
60432;SDS011;46286;48.098;11.590;2023-03-01T15:00:25;30.08;;;16.42;;
60432;SDS011;46286;48.098;11.590;2023-03-01T15:02:53;28.90;;;14.02;;
60432;SDS011;46286;48.098;11.590;2023-03-01T15:07:55;34.88;;;16.25;;
60432;SDS011;46286;48.098;11.590;2023-03-01T15:10:24;31.17;;;15.13;;
60432;SDS011;46286;48.098;11.590;2023-03-01T15:12:52;31.77;;;15.35;;
60432;SDS011;46286;48.098;11.590;2023-03-01T15:17:54;31.15;;;15.18;;
60432;SDS011;46286;48.098;11.590;2023-03-01T15:20:23;31.55;;;14.80;;
60432;SDS011;46286;48.098;11.590;2023-03-01T15:22:51;31.08;;;15.38;;
60432;SDS011;46286;48.098;11.590;2023-03-01T15:25:18;31.40;;;15.60;;
60432;SDS011;46286;48.098;11.590;2023-03-01T15:27:48;29.05;;;15.57;;
60432;SDS011;46286;48.098;11.590;2023-03-01T15:30:20;32.03;;;15.98;;
60432;SDS011;46286;48.098;11.590;2023-03-01T15:32:49;33.28;;;15.77;;
60432;SDS011;46286;48.098;11.590;2023-03-01T15:35:55;31.50;;;14.57;;
60432;SDS011;46286;48.098;11.590;2023-03-01T15:41:27;31.55;;;15.15;;
60432;SDS011;46286;48.098;11.590;2023-03-01T15:43:56;30.70;;;14.45;;
60432;SDS011;46286;48.098;11.590;2023-03-01T15:46:33;26.33;;;13.43;;
60432;SDS011;46286;48.098;11.590;2023-03-01T15:49:03;27.40;;;15.05;;
60432;SDS011;46286;48.098;11.590;2023-03-01T15:51:32;26.25;;;14.05;;
60432;SDS011;46286;48.098;11.590;2023-03-01T15:54:00;34.35;;;15.25;;
60432;SDS011;46286;48.098;11.590;2023-03-01T15:56:46;31.55;;;13.60;;
60432;SDS011;46286;48.098;11.590;2023-03-01T15:59:12;31.63;;;14.20;;
60432;SDS011;46286;48.098;11.590;2023-03-01T16:01:39;26.92;;;13.95;;
60432;SDS011;46286;48.098;11.590;2023-03-01T16:04:05;29.10;;;14.27;;
60432;SDS011;46286;48.098;11.590;2023-03-01T16:06:31;35.08;;;15.32;;
60432;SDS011;46286;48.098;11.590;2023-03-01T16:08:57;31.92;;;14.23;;
60432;SDS011;46286;48.098;11.590;2023-03-01T16:11:22;30.25;;;14.48;;
60432;SDS011;46286;48.098;11.590;2023-03-01T16:13:48;28.77;;;14.30;;
60432;SDS011;46286;48.098;11.590;2023-03-01T16:16:15;32.22;;;15.25;;
60432;SDS011;46286;48.098;11.590;2023-03-01T16:18:45;32.13;;;14.93;;
60432;SDS011;46286;48.098;11.590;2023-03-01T16:21:21;31.30;;;13.85;;